Tokuyoshi Maru — JI3537 — position and weather

sailwx.info

Track history (hours):
 
Tides and Currents Weather Stations Pressure Air Temp Water Temp Dewpoint Dewpoint Depression Visibility Wind Speed Wind Dir Waves Ship Positions

Tokuyoshi Maru

Last reported at 2018-Jun-24 08:05 UTC. Time now 2018-Jun-25 09:38 UTC.
Position N 34°14' E 134°53'.

Length 48 m.

Type: Tanker. MMSI: 431300099.

Date/timePositionNaut miles runAvg speedWind from/ knotsBaromVisibWave heightAir tempDewpointWater temp
2018-Jun-24 08:05N 34°14' E 134°53'1 9.4
2018-Jun-24 07:59N 34°14' E 134°54'4 8.2
2018-Jun-24 07:30N 34°17' E 134°58'4 9.0
2018-Jun-24 07:00N 34°21' E 135°01'5 9.5
2018-Jun-24 06:30N 34°23' E 135°05'5 9.8
2018-Jun-24 06:00N 34°26' E 135°10'610.3
2018-Jun-24 05:26N 34°29' E 135°16'10 1.5
2018-Jun-23 22:35N 34°36' E 135°25'110.1
2018-Jun-23 22:30N 34°37' E 135°25'2 0.1
2018-Jun-22 05:51N 34°39' E 135°24'0 0.0
2018-Jun-22 05:30N 34°39' E 135°24'2 3.4
2018-Jun-22 04:54N 34°37' E 135°24'3 1.7
2018-Jun-22 03:10N 34°34' E 135°26'0 0.0
2018-Jun-22 02:40N 34°34' E 135°26'4 0.3
2018-Jun-21 10:07N 34°39' E 135°27'4 9.8
2018-Jun-21 09:44N 34°38' E 135°22'510.4
2018-Jun-21 09:14N 34°37' E 135°16'310.0
2018-Jun-21 08:58N 34°36' E 135°13'  
2018-Jun-19 04:42N 34°37' E 135°07'2 9.4
2018-Jun-19 04:29N 34°37' E 135°10'5 9.4
2018-Jun-19 03:54N 34°38' E 135°17'8 0.4
2018-Jun-18 05:10N 34°39' E 135°26'3 8.7
2018-Jun-18 04:46N 34°40' E 135°22'3 8.5
2018-Jun-18 04:28N 34°41' E 135°20'3 6.0
2018-Jun-18 03:53N 34°42' E 135°16'0 0.0
2018-Jun-18 03:28N 34°42' E 135°16'0 0.0
2018-Jun-18 02:56N 34°42' E 135°16'0 0.0
2018-Jun-18 02:20N 34°42' E 135°16'0 0.0
2018-Jun-18 01:44N 34°42' E 135°16'0 0.0
2018-Jun-18 01:26N 34°42' E 135°16'0 0.0
2018-Jun-18 00:56N 34°42' E 135°16'0 0.0
2018-Jun-18 00:27N 34°42' E 135°16'0 0.0
2018-Jun-17 23:58N 34°42' E 135°16'0 0.5
2018-Jun-17 23:30N 34°42' E 135°16'5 8.6
2018-Jun-17 22:56N 34°41' E 135°22'5 0.3
2018-Jun-17 05:26N 34°36' E 135°22'511.1
2018-Jun-17 04:57N 34°41' E 135°18'1 1.9
2018-Jun-17 04:16N 34°41' E 135°17'0 0.0
2018-Jun-17 03:58N 34°41' E 135°17'0 0.0
2018-Jun-17 03:28N 34°41' E 135°17'0 0.0
2018-Jun-17 02:54N 34°41' E 135°17'0 0.0
2018-Jun-17 02:24N 34°41' E 135°17'0 0.5
2018-Jun-17 01:52N 34°41' E 135°17'3 7.7
2018-Jun-17 01:26N 34°41' E 135°21'10 0.2
2018-Jun-15 03:50N 34°35' E 135°11'  
Track history (hours):
 
Tides and Currents Weather Stations Pressure Air Temp Water Temp Dewpoint Dewpoint Depression Visibility Wind Speed Wind Dir Waves Ship Positions

Tokuyoshi Maru

Last reported at 2018-Jun-24 08:05 UTC. Time now 2018-Jun-25 09:38 UTC.
Position N 34°14' E 134°53'.

Length 48 m.

Type: Tanker. MMSI: 431300099.

Date/timePositionNaut miles runAvg speedWind from/ knotsBaromVisibWave heightAir tempDewpointWater temp
2018-Jun-24 08:05N 34°14' E 134°53'1 9.4
2018-Jun-24 07:59N 34°14' E 134°54'4 8.2
2018-Jun-24 07:30N 34°17' E 134°58'4 9.0
2018-Jun-24 07:00N 34°21' E 135°01'5 9.5
2018-Jun-24 06:30N 34°23' E 135°05'5 9.8
2018-Jun-24 06:00N 34°26' E 135°10'610.3
2018-Jun-24 05:26N 34°29' E 135°16'10 1.5
2018-Jun-23 22:35N 34°36' E 135°25'110.1
2018-Jun-23 22:30N 34°37' E 135°25'2 0.1
2018-Jun-22 05:51N 34°39' E 135°24'0 0.0
2018-Jun-22 05:30N 34°39' E 135°24'2 3.4
2018-Jun-22 04:54N 34°37' E 135°24'3 1.7
2018-Jun-22 03:10N 34°34' E 135°26'0 0.0
2018-Jun-22 02:40N 34°34' E 135°26'4 0.3
2018-Jun-21 10:07N 34°39' E 135°27'4 9.8
2018-Jun-21 09:44N 34°38' E 135°22'510.4
2018-Jun-21 09:14N 34°37' E 135°16'310.0
2018-Jun-21 08:58N 34°36' E 135°13'  
2018-Jun-19 04:42N 34°37' E 135°07'2 9.4
2018-Jun-19 04:29N 34°37' E 135°10'5 9.4
2018-Jun-19 03:54N 34°38' E 135°17'8 0.4
2018-Jun-18 05:10N 34°39' E 135°26'3 8.7
2018-Jun-18 04:46N 34°40' E 135°22'3 8.5
2018-Jun-18 04:28N 34°41' E 135°20'3 6.0
2018-Jun-18 03:53N 34°42' E 135°16'0 0.0
2018-Jun-18 03:28N 34°42' E 135°16'0 0.0
2018-Jun-18 02:56N 34°42' E 135°16'0 0.0
2018-Jun-18 02:20N 34°42' E 135°16'0 0.0
2018-Jun-18 01:44N 34°42' E 135°16'0 0.0
2018-Jun-18 01:26N 34°42' E 135°16'0 0.0
2018-Jun-18 00:56N 34°42' E 135°16'0 0.0
2018-Jun-18 00:27N 34°42' E 135°16'0 0.0
2018-Jun-17 23:58N 34°42' E 135°16'0 0.5
2018-Jun-17 23:30N 34°42' E 135°16'5 8.6
2018-Jun-17 22:56N 34°41' E 135°22'5 0.3
2018-Jun-17 05:26N 34°36' E 135°22'511.1
2018-Jun-17 04:57N 34°41' E 135°18'1 1.9
2018-Jun-17 04:16N 34°41' E 135°17'0 0.0
2018-Jun-17 03:58N 34°41' E 135°17'0 0.0
2018-Jun-17 03:28N 34°41' E 135°17'0 0.0
2018-Jun-17 02:54N 34°41' E 135°17'0 0.0
2018-Jun-17 02:24N 34°41' E 135°17'0 0.5
2018-Jun-17 01:52N 34°41' E 135°17'3 7.7
2018-Jun-17 01:26N 34°41' E 135°21'10 0.2
2018-Jun-15 03:50N 34°35' E 135°11'  

Dump ship's entire track history